createdAt,value
2023-03-02T00:01:04.519Z,33.00
2023-03-02T00:03:36.987Z,31.67
2023-03-02T00:06:09.808Z,32.80
2023-03-02T00:08:41.112Z,32.00
2023-03-02T00:11:11.818Z,31.20
2023-03-02T00:13:43.549Z,28.03
2023-03-02T00:16:15.667Z,30.53
2023-03-02T00:18:46.230Z,33.80
2023-03-02T00:21:16.860Z,31.50
2023-03-02T00:23:49.001Z,34.23
2023-03-02T00:26:21.919Z,31.50
2023-03-02T00:28:52.469Z,30.10
2023-03-02T00:31:23.060Z,31.67
2023-03-02T00:33:57.100Z,29.32
2023-03-02T00:36:27.725Z,27.37
2023-03-02T00:38:58.247Z,25.47
2023-03-02T00:41:29.110Z,25.30
2023-03-02T00:43:59.610Z,24.57
2023-03-02T00:46:31.296Z,25.63
2023-03-02T00:49:03.641Z,19.07
2023-03-02T00:51:34.620Z,20.53
2023-03-02T00:54:06.181Z,18.20
2023-03-02T00:56:37.038Z,19.10
2023-03-02T00:59:30.332Z,19.57
2023-03-02T01:02:01.770Z,19.90
2023-03-02T01:04:36.698Z,19.50
2023-03-02T01:07:10.753Z,19.57
2023-03-02T01:09:43.380Z,21.73
2023-03-02T01:12:14.698Z,22.47
2023-03-02T01:14:49.122Z,21.57
2023-03-02T01:17:23.020Z,20.33
2023-03-02T01:19:55.796Z,21.87
2023-03-02T01:22:26.589Z,23.20
2023-03-02T01:24:58.268Z,20.77
2023-03-02T01:27:31.263Z,20.90
2023-03-02T01:30:01.821Z,20.97
2023-03-02T01:32:34.168Z,23.47
2023-03-02T01:35:06.093Z,21.70
2023-03-02T01:37:36.751Z,20.97
2023-03-02T01:40:09.170Z,19.77
2023-03-02T01:42:42.519Z,22.13
2023-03-02T01:45:51.233Z,19.37
2023-03-02T01:48:30.495Z,22.07
2023-03-02T01:51:03.200Z,17.63
2023-03-02T01:53:36.492Z,23.97
2023-03-02T01:56:07.998Z,19.60
2023-03-02T01:58:39.339Z,19.70
2023-03-02T02:01:17.378Z,20.20
2023-03-02T02:03:51.299Z,24.57
2023-03-02T02:06:39.578Z,21.10
2023-03-02T02:09:13.371Z,18.83
2023-03-02T02:11:44.905Z,21.17
2023-03-02T02:14:16.174Z,19.80
2023-03-02T02:16:47.227Z,22.87
2023-03-02T02:19:27.137Z,21.70
2023-03-02T02:21:57.889Z,24.53
2023-03-02T02:24:37.352Z,23.87
2023-03-02T02:27:08.207Z,22.83
2023-03-02T02:29:43.447Z,22.83
2023-03-02T02:32:17.191Z,22.70
2023-03-02T02:34:56.578Z,23.43
2023-03-02T02:37:42.518Z,23.60
2023-03-02T02:40:21.692Z,24.63
2023-03-02T02:42:54.148Z,19.67
2023-03-02T02:45:27.311Z,21.63
2023-03-02T02:47:59.613Z,21.43
2023-03-02T02:50:35.825Z,22.80
2023-03-02T02:53:18.173Z,22.93
2023-03-02T02:55:54.563Z,25.20
2023-03-02T02:58:40.333Z,22.73
2023-03-02T03:01:14.367Z,21.67
2023-03-02T03:03:47.903Z,23.00
2023-03-02T03:06:22.757Z,22.27
2023-03-02T03:08:56.481Z,22.00
2023-03-02T03:11:30.209Z,20.40
2023-03-02T03:14:08.352Z,19.93
2023-03-02T03:16:40.970Z,23.27
2023-03-02T03:19:14.544Z,21.90
2023-03-02T03:21:45.777Z,21.90
2023-03-02T03:24:16.322Z,23.17
2023-03-02T03:26:46.910Z,21.53
2023-03-02T03:29:19.888Z,22.27
2023-03-02T03:31:51.643Z,23.70
2023-03-02T03:34:24.436Z,21.57
2023-03-02T03:36:55.524Z,22.97
2023-03-02T03:39:26.132Z,20.87
2023-03-02T03:41:57.985Z,22.93
2023-03-02T03:44:28.844Z,20.67
2023-03-02T03:47:01.898Z,23.10
2023-03-02T03:49:34.615Z,21.20
2023-03-02T03:52:05.195Z,23.03
2023-03-02T03:54:35.700Z,24.83
2023-03-02T03:57:07.477Z,26.53
2023-03-02T03:59:37.924Z,20.13
2023-03-02T04:02:08.407Z,22.87
2023-03-02T04:04:39.005Z,22.73
2023-03-02T04:07:10.109Z,22.87
2023-03-02T04:09:40.977Z,22.33
2023-03-02T04:12:12.199Z,21.43
2023-03-02T04:14:42.914Z,22.83
2023-03-02T04:17:13.372Z,24.60
2023-03-02T04:19:45.757Z,24.20
2023-03-02T04:22:17.158Z,22.33
2023-03-02T04:24:49.016Z,25.43
2023-03-02T04:27:20.166Z,23.93
2023-03-02T04:29:53.159Z,24.57
2023-03-02T04:32:25.721Z,26.60
2023-03-02T04:34:56.161Z,21.03
2023-03-02T04:37:27.280Z,22.73
2023-03-02T04:39:58.050Z,23.07
2023-03-02T04:42:28.920Z,24.77
2023-03-02T04:44:59.524Z,26.77
2023-03-02T04:47:30.113Z,31.00
2023-03-02T04:50:01.112Z,27.67
2023-03-02T04:52:31.658Z,25.93
2023-03-02T04:55:02.294Z,27.63
2023-03-02T04:57:32.933Z,31.97
2023-03-02T05:00:04.959Z,26.90
2023-03-02T05:02:37.189Z,28.40
2023-03-02T05:05:08.582Z,26.90
2023-03-02T05:07:39.116Z,27.53
2023-03-02T05:10:10.716Z,31.17
2023-03-02T05:13:01.221Z,32.83
2023-03-02T05:15:34.718Z,30.73
2023-03-02T05:18:12.138Z,31.73
2023-03-02T05:20:40.382Z,31.70
2023-03-02T05:23:15.870Z,32.57
2023-03-02T05:25:46.512Z,30.83
2023-03-02T05:28:18.137Z,32.73
2023-03-02T05:30:49.257Z,37.23
2023-03-02T05:33:20.512Z,34.87
2023-03-02T05:35:51.063Z,33.53
2023-03-02T05:38:21.746Z,33.50
2023-03-02T05:40:52.397Z,37.90
2023-03-02T05:43:24.068Z,38.27
2023-03-02T05:45:57.190Z,35.73
2023-03-02T05:48:29.883Z,38.30
2023-03-02T05:51:00.667Z,37.77
2023-03-02T05:53:31.298Z,36.40
2023-03-02T05:56:01.881Z,39.67
2023-03-02T05:58:34.932Z,36.27
2023-03-02T06:01:14.780Z,34.93
2023-03-02T06:03:44.369Z,37.40
2023-03-02T06:06:15.075Z,35.20
2023-03-02T06:08:48.420Z,39.93
2023-03-02T06:11:18.350Z,42.60
2023-03-02T06:13:50.194Z,39.03
2023-03-02T06:16:20.897Z,40.30
2023-03-02T06:18:51.407Z,41.00
2023-03-02T06:21:22.087Z,38.87
2023-03-02T06:23:52.600Z,41.83
2023-03-02T06:26:24.243Z,38.13
2023-03-02T06:28:54.770Z,41.60
2023-03-02T06:31:25.446Z,41.87
2023-03-02T06:33:55.966Z,41.10
2023-03-02T06:36:29.595Z,44.87
2023-03-02T06:39:01.251Z,38.23
2023-03-02T06:41:33.832Z,39.70
2023-03-02T06:44:06.216Z,39.50
2023-03-02T06:46:37.424Z,33.30
2023-03-02T06:49:08.934Z,37.93
2023-03-02T06:51:39.713Z,35.37
2023-03-02T06:54:10.209Z,31.13
2023-03-02T06:56:41.158Z,32.67
2023-03-02T06:59:15.276Z,37.13
2023-03-02T07:01:47.637Z,41.83
2023-03-02T07:04:18.134Z,39.70
2023-03-02T07:06:48.654Z,39.80
2023-03-02T07:09:19.161Z,43.07
2023-03-02T07:11:55.343Z,39.27
2023-03-02T07:14:25.912Z,42.50
2023-03-02T07:19:40.889Z,42.77
2023-03-02T07:22:11.632Z,41.57
2023-03-02T07:24:44.050Z,38.20
2023-03-02T07:27:16.037Z,36.67
2023-03-02T07:29:47.230Z,36.53
2023-03-02T07:32:22.589Z,37.47
2023-03-02T07:34:53.549Z,36.40
2023-03-02T07:37:24.757Z,34.40
2023-03-02T07:40:00.606Z,33.83
2023-03-02T07:42:31.024Z,38.03
2023-03-02T07:45:04.408Z,41.67
2023-03-02T07:47:34.817Z,37.37
2023-03-02T07:50:07.165Z,39.53
2023-03-02T07:52:38.151Z,34.33
2023-03-02T07:55:09.635Z,35.20
2023-03-02T07:57:40.203Z,36.87
2023-03-02T08:00:11.939Z,35.57
2023-03-02T08:02:47.898Z,31.07
2023-03-02T08:05:18.800Z,36.20
2023-03-02T08:07:52.173Z,31.43
2023-03-02T08:10:23.113Z,28.50
2023-03-02T08:12:53.737Z,35.97
2023-03-02T08:15:24.878Z,32.60
2023-03-02T08:18:01.976Z,32.67
2023-03-02T08:20:34.303Z,32.43
2023-03-02T08:23:04.917Z,37.27
2023-03-02T08:25:37.455Z,30.33
2023-03-02T08:28:07.736Z,37.00
2023-03-02T08:30:38.792Z,37.03
2023-03-02T08:33:09.323Z,36.83
2023-03-02T08:35:39.928Z,37.20
2023-03-02T08:38:14.430Z,35.03
2023-03-02T08:40:46.190Z,37.53
2023-03-02T08:43:19.498Z,39.23
2023-03-02T08:45:54.615Z,36.37
2023-03-02T08:48:28.182Z,36.53
2023-03-02T08:51:05.314Z,38.33
2023-03-02T08:53:39.378Z,40.30
2023-03-02T08:56:19.597Z,41.70
2023-03-02T08:58:52.283Z,39.63
2023-03-02T09:01:27.102Z,35.37
2023-03-02T09:04:00.492Z,38.20
2023-03-02T09:06:33.671Z,37.87
2023-03-02T09:09:07.948Z,35.97
2023-03-02T09:11:44.333Z,37.17
2023-03-02T09:14:16.725Z,35.93
2023-03-02T09:16:48.956Z,36.57
2023-03-02T09:19:20.281Z,37.30
2023-03-02T09:21:51.432Z,35.80
2023-03-02T09:24:23.623Z,28.20
2023-03-02T09:26:54.586Z,33.67
2023-03-02T09:29:25.336Z,35.52
2023-03-02T09:31:58.491Z,33.87
2023-03-02T09:34:30.793Z,34.70
2023-03-02T09:37:01.566Z,31.37
2023-03-02T09:39:32.077Z,32.43
2023-03-02T09:42:11.715Z,34.03
2023-03-02T09:44:45.468Z,31.80
2023-03-02T09:47:34.572Z,34.33
2023-03-02T09:50:18.156Z,35.97
2023-03-02T09:52:51.947Z,28.53
2023-03-02T09:55:26.333Z,30.13
2023-03-02T09:57:57.556Z,27.90
2023-03-02T10:00:40.453Z,28.80
2023-03-02T10:03:31.722Z,27.93
2023-03-02T10:06:02.517Z,28.23
2023-03-02T10:08:36.323Z,29.17
2023-03-02T10:11:25.025Z,28.20
2023-03-02T10:14:21.550Z,29.18
2023-03-02T10:17:28.887Z,30.20
2023-03-02T10:20:02.573Z,30.03
2023-03-02T10:22:37.921Z,31.00
2023-03-02T10:25:46.866Z,26.40
2023-03-02T10:28:26.199Z,30.27
2023-03-02T10:31:05.683Z,27.25
2023-03-02T10:33:42.335Z,27.80
2023-03-02T10:36:31.027Z,26.37
2023-03-02T10:39:01.662Z,26.17
2023-03-02T10:41:35.753Z,28.50
2023-03-02T10:44:09.394Z,27.97
2023-03-02T10:46:42.028Z,26.60
2023-03-02T10:49:33.930Z,25.00
2023-03-02T10:52:20.154Z,25.70
2023-03-02T10:54:54.515Z,26.12
2023-03-02T10:57:37.148Z,25.97
2023-03-02T11:00:27.796Z,24.27
2023-03-02T11:03:01.428Z,26.05
2023-03-02T11:05:42.666Z,24.43
2023-03-02T11:08:18.956Z,26.87
2023-03-02T11:11:06.817Z,28.20
2023-03-02T11:13:40.612Z,24.20
2023-03-02T11:16:24.078Z,25.17
2023-03-02T11:19:01.055Z,26.50
2023-03-02T11:21:36.340Z,23.60
2023-03-02T11:24:34.503Z,20.80
2023-03-02T11:27:09.296Z,22.55
2023-03-02T11:29:42.949Z,25.52
2023-03-02T11:32:34.812Z,26.63
2023-03-02T11:35:31.534Z,25.57
2023-03-02T11:38:17.341Z,21.97
2023-03-02T11:40:58.263Z,21.53
2023-03-02T11:43:30.257Z,23.63
2023-03-02T11:46:13.917Z,24.32
2023-03-02T11:48:42.493Z,26.12
2023-03-02T11:51:17.696Z,23.75
2023-03-02T11:54:08.905Z,22.07
2023-03-02T11:56:40.874Z,24.13
2023-03-02T11:59:21.585Z,22.53
2023-03-02T12:01:59.504Z,21.33
2023-03-02T12:04:33.617Z,20.77
2023-03-02T12:07:23.212Z,22.00
2023-03-02T12:10:09.777Z,22.20
2023-03-02T12:12:44.278Z,19.27
2023-03-02T12:15:38.819Z,21.87
2023-03-02T12:18:27.708Z,23.00
2023-03-02T12:21:06.860Z,21.73
2023-03-02T12:23:46.252Z,19.25
2023-03-02T12:26:22.583Z,19.95
2023-03-02T12:29:15.557Z,19.60
2023-03-02T12:31:55.335Z,20.60
2023-03-02T12:34:37.621Z,18.17
2023-03-02T12:37:16.943Z,20.30
2023-03-02T12:39:53.220Z,92.25
2023-03-02T12:42:46.958Z,18.77
2023-03-02T12:45:37.281Z,17.55
2023-03-02T12:48:26.877Z,17.75
2023-03-02T12:51:00.622Z,17.52
2023-03-02T12:53:33.239Z,17.75
2023-03-02T12:56:04.330Z,18.97
2023-03-02T12:58:35.229Z,16.85
2023-03-02T13:01:06.792Z,19.50
2023-03-02T13:03:40.359Z,18.03
2023-03-02T13:06:17.824Z,18.90
2023-03-02T13:08:54.847Z,16.27
2023-03-02T13:11:29.596Z,16.80
2023-03-02T13:14:06.120Z,17.00
2023-03-02T13:16:38.185Z,17.60
2023-03-02T13:19:12.027Z,17.07
2023-03-02T13:21:44.284Z,16.70
2023-03-02T13:24:32.220Z,17.60
2023-03-02T13:27:11.292Z,17.13
2023-03-02T13:29:41.867Z,16.05
2023-03-02T13:32:24.493Z,15.95
2023-03-02T13:34:58.725Z,15.70
2023-03-02T13:37:42.280Z,16.87
2023-03-02T13:40:29.637Z,21.00
2023-03-02T13:43:00.216Z,23.65
2023-03-02T13:45:34.899Z,22.00
2023-03-02T13:48:16.141Z,18.60
2023-03-02T13:51:16.692Z,19.90
2023-03-02T13:54:09.056Z,17.35
2023-03-02T13:56:41.612Z,19.60
2023-03-02T13:59:18.112Z,17.82
2023-03-02T14:01:48.721Z,19.87
2023-03-02T14:04:25.304Z,20.95
2023-03-02T14:06:57.870Z,20.00
2023-03-02T14:09:29.458Z,19.52
2023-03-02T14:12:00.158Z,18.23
2023-03-02T14:14:32.826Z,17.42
2023-03-02T14:17:05.982Z,17.33
2023-03-02T14:19:39.952Z,16.60
2023-03-02T14:22:13.653Z,16.52
2023-03-02T14:24:44.228Z,17.48
2023-03-02T14:27:17.113Z,16.65
2023-03-02T14:29:48.408Z,14.98
2023-03-02T14:32:19.047Z,18.33
2023-03-02T14:34:49.576Z,15.93
2023-03-02T14:37:22.924Z,17.90
2023-03-02T14:39:55.573Z,16.02
2023-03-02T14:42:27.210Z,14.63
2023-03-02T14:45:00.473Z,15.87
2023-03-02T14:47:32.659Z,17.80
2023-03-02T14:50:05.317Z,14.03
2023-03-02T14:52:41.823Z,15.07
2023-03-02T14:55:28.390Z,14.60
2023-03-02T14:58:02.619Z,13.43
2023-03-02T15:00:33.993Z,15.50
2023-03-02T15:03:05.507Z,15.30
2023-03-02T15:05:36.542Z,13.77
2023-03-02T15:08:07.091Z,13.10
2023-03-02T15:10:39.150Z,11.67
2023-03-02T15:13:11.967Z,13.30
2023-03-02T15:15:44.292Z,12.78
2023-03-02T15:18:18.384Z,13.93
2023-03-02T15:20:48.950Z,13.90
2023-03-02T15:23:19.361Z,13.73
2023-03-02T15:25:50.078Z,11.68
2023-03-02T15:28:21.651Z,13.60
2023-03-02T15:30:52.020Z,13.60
2023-03-02T15:33:22.929Z,15.50
2023-03-02T15:35:56.488Z,14.80
2023-03-02T15:38:28.538Z,13.17
2023-03-02T15:40:59.426Z,10.48
2023-03-02T15:43:29.913Z,12.10
2023-03-02T15:46:02.516Z,11.07
2023-03-02T15:48:33.213Z,11.43
2023-03-02T15:51:06.710Z,10.67
2023-03-02T15:53:38.768Z,11.27
2023-03-02T15:56:13.907Z,10.57
2023-03-02T15:58:49.584Z,11.30
2023-03-02T16:01:21.604Z,11.10
2023-03-02T16:03:53.820Z,13.10
2023-03-02T16:06:24.332Z,11.13
2023-03-02T16:08:56.154Z,9.97
2023-03-02T16:11:26.600Z,11.48
2023-03-02T16:13:58.078Z,14.10
2023-03-02T16:16:28.824Z,12.60
2023-03-02T16:19:00.158Z,12.60
2023-03-02T16:21:31.589Z,13.05
2023-03-02T16:24:05.481Z,11.33
2023-03-02T16:26:38.476Z,13.00
2023-03-02T16:29:09.038Z,12.30
2023-03-02T16:31:41.862Z,13.10
2023-03-02T16:34:12.439Z,11.17
2023-03-02T16:36:44.417Z,11.23
2023-03-02T16:39:15.505Z,12.53
2023-03-02T16:41:46.493Z,12.43
2023-03-02T16:44:17.228Z,16.47
2023-03-02T16:46:48.329Z,12.70
2023-03-02T16:49:19.086Z,14.37
2023-03-02T16:51:51.025Z,14.13
2023-03-02T16:54:21.518Z,14.63
2023-03-02T16:56:51.992Z,13.20
2023-03-02T16:59:22.550Z,13.97
2023-03-02T17:01:53.976Z,12.77
2023-03-02T17:04:26.321Z,11.70
2023-03-02T17:07:01.069Z,13.00
2023-03-02T17:09:34.109Z,16.87
2023-03-02T17:12:07.493Z,13.80
2023-03-02T17:14:37.861Z,21.57
2023-03-02T17:17:08.517Z,17.83
2023-03-02T17:19:39.088Z,13.50
2023-03-02T17:22:10.706Z,15.60
2023-03-02T17:24:41.302Z,13.93
2023-03-02T17:27:24.139Z,14.43
2023-03-02T17:29:44.823Z,16.80
2023-03-02T17:32:15.696Z,13.27
2023-03-02T17:34:46.188Z,15.40
2023-03-02T17:37:17.575Z,14.50
2023-03-02T17:39:51.051Z,11.80
2023-03-02T17:42:21.592Z,13.57
2023-03-02T17:44:52.765Z,14.20
2023-03-02T17:47:24.917Z,13.40
2023-03-02T17:49:58.205Z,13.03
2023-03-02T17:52:30.407Z,13.87
2023-03-02T17:55:00.908Z,13.23
2023-03-02T17:57:31.862Z,15.65
2023-03-02T18:00:03.937Z,13.93
2023-03-02T18:02:37.257Z,16.17
2023-03-02T18:05:10.238Z,16.10
2023-03-02T18:07:40.708Z,15.67
2023-03-02T18:10:13.985Z,14.07
2023-03-02T18:12:45.591Z,11.53
2023-03-02T18:15:15.907Z,12.83
2023-03-02T18:17:46.513Z,12.97
2023-03-02T18:20:17.743Z,16.07
2023-03-02T18:22:48.377Z,14.03
2023-03-02T18:25:19.160Z,15.40
2023-03-02T18:27:49.644Z,14.03
2023-03-02T18:30:21.802Z,15.70
2023-03-02T18:32:54.047Z,15.57
2023-03-02T18:35:29.192Z,13.73
2023-03-02T18:37:59.712Z,12.57
2023-03-02T18:40:32.012Z,14.13
2023-03-02T18:43:03.122Z,15.00
2023-03-02T18:45:34.688Z,15.07
2023-03-02T18:48:05.959Z,17.10
2023-03-02T18:50:37.119Z,14.60
2023-03-02T18:53:09.981Z,13.93
2023-03-02T18:55:42.948Z,13.43
2023-03-02T18:58:16.859Z,30.50
2023-03-02T19:00:48.217Z,14.13
2023-03-02T19:03:19.439Z,35.37
2023-03-02T19:05:50.003Z,20.87
2023-03-02T19:08:22.232Z,40.83
2023-03-02T19:10:54.204Z,16.13
2023-03-02T19:13:32.793Z,16.93
2023-03-02T19:15:59.928Z,17.33
2023-03-02T19:18:32.112Z,16.53
2023-03-02T19:21:04.128Z,17.83
2023-03-02T19:23:34.806Z,16.13
2023-03-02T19:26:05.440Z,15.37
2023-03-02T19:28:38.085Z,14.50
2023-03-02T19:31:11.269Z,15.83
2023-03-02T19:33:43.034Z,18.23
2023-03-02T19:36:13.717Z,17.93
2023-03-02T19:38:44.502Z,15.77
2023-03-02T19:41:17.292Z,18.40
2023-03-02T19:43:56.357Z,18.67
2023-03-02T19:46:27.850Z,17.33
2023-03-02T19:48:59.976Z,16.17
2023-03-02T19:51:30.528Z,17.33
2023-03-02T19:54:03.106Z,18.57
2023-03-02T19:56:35.118Z,18.00
2023-03-02T19:59:06.906Z,16.53
2023-03-02T20:01:39.304Z,18.03
2023-03-02T20:04:09.803Z,20.40
2023-03-02T20:06:40.473Z,16.97
2023-03-02T20:09:12.585Z,19.03
2023-03-02T20:11:44.567Z,17.20
2023-03-02T20:14:31.248Z,16.27
2023-03-02T20:16:47.905Z,17.80
2023-03-02T20:19:20.548Z,19.43
2023-03-02T20:21:52.082Z,20.03
2023-03-02T20:24:23.043Z,24.10
2023-03-02T20:26:53.610Z,20.17
2023-03-02T20:29:24.131Z,21.53
2023-03-02T20:31:57.988Z,23.27
2023-03-02T20:34:28.920Z,18.40
2023-03-02T20:37:03.066Z,21.20
2023-03-02T20:39:35.967Z,22.70
2023-03-02T20:42:08.126Z,21.50
2023-03-02T20:44:39.917Z,21.17
2023-03-02T20:47:12.797Z,23.80
2023-03-02T20:49:45.052Z,24.70
2023-03-02T20:52:18.123Z,23.33
2023-03-02T20:54:48.673Z,21.50
2023-03-02T20:57:21.692Z,26.77
2023-03-02T20:59:52.404Z,25.23
2023-03-02T21:02:25.527Z,23.73
2023-03-02T21:04:56.440Z,22.80
2023-03-02T21:07:27.154Z,21.00
2023-03-02T21:09:57.978Z,21.27
2023-03-02T21:12:33.208Z,18.83
2023-03-02T21:15:04.533Z,24.67
2023-03-02T21:17:35.557Z,21.40
2023-03-02T21:20:08.154Z,21.03
2023-03-02T21:22:40.185Z,20.27
2023-03-02T21:25:11.353Z,21.83
2023-03-02T21:27:43.794Z,22.20
2023-03-02T21:30:17.938Z,22.80
2023-03-02T21:32:49.142Z,32.10
2023-03-02T21:35:27.421Z,24.67
2023-03-02T21:38:02.413Z,21.77
2023-03-02T21:40:41.360Z,24.70
2023-03-02T21:43:12.242Z,21.83
2023-03-02T21:45:43.113Z,20.63
2023-03-02T21:48:16.677Z,22.20
2023-03-02T21:50:51.555Z,21.43
2023-03-02T21:53:23.494Z,22.93
2023-03-02T21:55:54.996Z,24.67
2023-03-02T21:58:25.581Z,24.67
2023-03-02T22:00:56.006Z,25.77
2023-03-02T22:03:27.891Z,23.67
2023-03-02T22:05:58.518Z,26.07
2023-03-02T22:08:29.263Z,23.97
2023-03-02T22:11:00.196Z,24.47
2023-03-02T22:13:34.948Z,22.80
2023-03-02T22:16:21.064Z,25.70
2023-03-02T22:18:57.447Z,22.07
2023-03-02T22:21:34.623Z,25.30
2023-03-02T22:24:14.330Z,23.80
2023-03-02T22:26:48.635Z,25.23
2023-03-02T22:29:25.560Z,24.13
2023-03-02T22:31:58.967Z,23.53
2023-03-02T22:34:32.213Z,22.67
2023-03-02T22:37:14.686Z,23.83
2023-03-02T22:39:48.380Z,26.50
2023-03-02T22:42:21.442Z,25.83
2023-03-02T22:45:04.574Z,26.40
2023-03-02T22:47:35.435Z,27.47
2023-03-02T22:50:24.871Z,23.50
2023-03-02T22:52:57.664Z,23.97
2023-03-02T22:55:43.148Z,23.77
2023-03-02T22:58:34.582Z,26.07
2023-03-02T23:01:08.236Z,26.30
2023-03-02T23:03:41.444Z,27.07
2023-03-02T23:06:27.275Z,24.20
2023-03-02T23:09:00.615Z,22.73
2023-03-02T23:11:34.133Z,22.33
2023-03-02T23:14:23.745Z,23.27
2023-03-02T23:17:15.475Z,23.77
2023-03-02T23:19:46.198Z,27.00
2023-03-02T23:22:17.614Z,24.90
2023-03-02T23:24:48.360Z,23.23
2023-03-02T23:27:18.996Z,24.47
2023-03-02T23:29:53.136Z,24.47
2023-03-02T23:32:23.988Z,21.43
2023-03-02T23:34:56.649Z,25.93
2023-03-02T23:37:27.215Z,24.90
2023-03-02T23:39:57.801Z,25.53
2023-03-02T23:42:28.528Z,26.67
2023-03-02T23:45:00.450Z,25.63
2023-03-02T23:47:31.007Z,26.27
2023-03-02T23:50:02.899Z,28.33
2023-03-02T23:52:35.020Z,24.23
2023-03-02T23:55:07.283Z,24.37
2023-03-02T23:57:37.842Z,21.27
